Time;durP1;ratioP1;P1;durP2;ratioP2;P2;SDS_P1;SDS_P2;PMS_P1;PMS_P2;Temp;Humidity;BMP_temperature;BMP_pressure;BME280_temperature;BME280_humidity;BME280_pressure;Samples;Min_cycle;Max_cycle;Signal;HPM_P1;HPM_P2
2021/04/05 00:00:27;;;;;;;3.20;1.63;;;21.10;37.30;;;;;;5090615;28;20107;-54
2021/04/05 00:02:54;;;;;;;2.92;1.77;;;21.10;37.30;;;;;;5091904;28;20028;-53
2021/04/05 00:05:26;;;;;;;3.13;1.58;;;21.10;37.30;;;;;;5091655;28;20103;-49
2021/04/05 00:07:52;;;;;;;4.43;1.85;;;21.00;37.30;;;;;;5090190;28;20461;-51
2021/04/05 00:10:24;;;;;;;1.73;1.23;;;21.00;37.20;;;;;;5087555;28;20032;-54
2021/04/05 00:12:51;;;;;;;3.30;1.80;;;21.00;37.20;;;;;;5071379;28;20032;-49
2021/04/05 00:15:17;;;;;;;3.13;1.58;;;21.00;37.30;;;;;;5077296;28;20077;-56
2021/04/05 00:17:44;;;;;;;4.15;1.55;;;21.00;37.30;;;;;;5093232;28;20189;-52
2021/04/05 00:20:20;;;;;;;4.03;1.58;;;21.00;37.30;;;;;;5075371;28;20032;-53
2021/04/05 00:22:45;;;;;;;3.20;1.65;;;21.00;37.30;;;;;;5075263;28;20357;-52
2021/04/05 00:25:12;;;;;;;2.85;1.30;;;21.00;37.20;;;;;;5095268;28;20028;-56
2021/04/05 00:27:38;;;;;;;3.45;1.75;;;21.00;37.30;;;;;;5094700;28;20043;-52
2021/04/05 00:30:09;;;;;;;4.82;1.63;;;21.00;37.30;;;;;;5095677;28;20111;-55
2021/04/05 00:32:35;;;;;;;2.20;1.42;;;21.00;37.30;;;;;;5094661;28;20373;-54
2021/04/05 00:35:03;;;;;;;3.22;1.60;;;21.00;37.20;;;;;;5095254;28;20028;-54
2021/04/05 00:37:29;;;;;;;2.10;1.30;;;21.00;37.20;;;;;;5081984;28;20035;-53
2021/04/05 00:39:54;;;;;;;2.58;1.55;;;21.00;37.30;;;;;;5074931;28;20028;-55
2021/04/05 00:42:21;;;;;;;2.47;1.30;;;21.00;37.30;;;;;;5075036;28;20037;-57
2021/04/05 00:44:47;;;;;;;2.65;1.38;;;21.00;37.30;;;;;;5074173;28;20024;-55
2021/04/05 00:47:14;;;;;;;4.90;1.35;;;21.00;37.30;;;;;;5090138;28;20137;-55
2021/04/05 00:49:40;;;;;;;2.78;1.90;;;21.00;37.30;;;;;;5077529;28;20036;-54
2021/04/05 00:52:06;;;;;;;3.40;1.60;;;21.00;37.30;;;;;;5074893;28;20032;-52
2021/04/05 00:54:32;;;;;;;3.40;1.33;;;20.90;37.20;;;;;;5073569;28;20031;-52
2021/04/05 00:56:58;;;;;;;3.60;1.40;;;21.00;37.30;;;;;;5074564;28;20032;-54
2021/04/05 00:59:24;;;;;;;3.33;1.50;;;20.90;37.20;;;;;;5072894;28;20034;-56
2021/04/05 01:01:50;;;;;;;2.72;1.55;;;21.00;37.30;;;;;;5075028;28;20040;-55
2021/04/05 01:04:16;;;;;;;2.45;1.45;;;20.90;37.30;;;;;;5074877;28;20078;-56
2021/04/05 01:06:41;;;;;;;3.30;1.58;;;20.90;37.30;;;;;;5090827;28;20031;-53
2021/04/05 01:09:08;;;;;;;4.93;1.30;;;20.90;37.10;;;;;;5094759;28;20051;-56
2021/04/05 01:11:35;;;;;;;2.40;1.13;;;20.90;37.20;;;;;;5093328;28;20105;-57
2021/04/05 01:14:00;;;;;;;2.63;1.63;;;20.90;37.20;;;;;;5095006;28;20372;-55
2021/04/05 01:16:28;;;;;;;3.15;1.30;;;20.90;37.20;;;;;;5092596;28;20186;-56
2021/04/05 01:18:54;;;;;;;2.80;1.30;;;20.90;37.20;;;;;;5084735;28;20042;-57
2021/04/05 01:21:21;;;;;;;5.45;1.83;;;20.90;37.20;;;;;;5073944;28;20040;-56
2021/04/05 01:23:46;;;;;;;2.88;1.33;;;20.90;37.20;;;;;;5073535;28;20040;-57
2021/04/05 01:26:13;;;;;;;2.05;1.13;;;20.90;37.20;;;;;;5074200;28;20078;-53
2021/04/05 01:28:38;;;;;;;2.42;1.42;;;20.90;37.80;;;;;;5072619;28;20039;-52
2021/04/05 01:31:04;;;;;;;3.53;1.52;;;20.90;37.20;;;;;;5072913;28;20424;-55
2021/04/05 01:33:31;;;;;;;3.22;1.40;;;20.90;37.30;;;;;;5073251;28;20480;-52
2021/04/05 01:36:14;;;;;;;4.63;1.60;;;20.90;37.30;;;;;;5073771;28;20377;-54
2021/04/05 01:38:46;;;;;;;1.80;1.13;;;20.90;37.20;;;;;;5073332;28;20044;-52
2021/04/05 01:41:12;;;;;;;;;;;20.90;37.10;;;;;;5074027;28;20043;-57
2021/04/05 01:43:38;;;;;;;3.22;1.23;;;20.90;37.10;;;;;;5071833;28;19912;-54
2021/04/05 01:46:05;;;;;;;4.30;1.83;;;20.90;37.10;;;;;;5079827;28;20050;-56
2021/04/05 01:48:31;;;;;;;4.45;1.70;;;20.90;37.00;;;;;;5085291;28;20486;-52
2021/04/05 01:51:08;;;;;;;3.90;1.20;;;20.80;37.00;;;;;;5072256;28;20059;-51
2021/04/05 01:53:36;;;;;;;3.30;1.13;;;20.90;37.10;;;;;;5072600;28;20082;-51
2021/04/05 01:56:04;;;;;;;3.88;1.50;;;20.90;37.10;;;;;;5073697;28;20035;-51
2021/04/05 01:58:30;;;;;;;3.67;1.40;;;20.80;37.00;;;;;;5072588;28;20033;-54
2021/04/05 02:00:57;;;;;;;2.55;1.20;;;20.90;37.10;;;;;;5073436;28;20032;-54
2021/04/05 02:03:23;;;;;;;2.55;1.20;;;20.80;37.10;;;;;;5073536;28;20109;-53
2021/04/05 02:06:02;;;;;;;2.25;1.40;;;20.80;37.00;;;;;;5071319;28;20974;-53
2021/04/05 02:08:28;;;;;;;5.75;1.70;;;20.90;37.10;;;;;;5072923;28;20028;-57
2021/04/05 02:10:57;;;;;;;4.05;1.20;;;20.80;37.00;;;;;;5072724;28;20047;-54
2021/04/05 02:13:24;;;;;;;5.07;1.67;;;20.80;37.10;;;;;;5073175;28;20033;-53
2021/04/05 02:15:51;;;;;;;3.45;1.52;;;20.80;37.00;;;;;;5072343;28;20389;-57
2021/04/05 02:18:18;;;;;;;4.00;1.50;;;20.80;37.00;;;;;;5072803;28;20484;-57
2021/04/05 02:20:45;;;;;;;3.50;1.55;;;20.80;37.10;;;;;;5072152;28;20036;-57
2021/04/05 02:23:12;;;;;;;2.75;1.13;;;20.80;37.00;;;;;;5072694;28;20060;-48
2021/04/05 02:28:24;;;;;;;5.28;1.40;;;20.80;37.10;;;;;;5072994;28;20078;-54
2021/04/05 02:30:49;;;;;;;2.90;1.40;;;20.80;37.10;;;;;;5072242;28;20029;-57
2021/04/05 02:33:15;;;;;;;5.97;1.50;;;20.80;37.00;;;;;;5072913;28;20028;-55
2021/04/05 02:35:41;;;;;;;3.20;1.42;;;20.80;37.10;;;;;;5071993;28;20113;-56
2021/04/05 02:38:07;;;;;;;4.55;1.50;;;20.80;37.10;;;;;;5072693;28;20025;-48
2021/04/05 02:40:33;;;;;;;4.47;1.33;;;20.80;37.00;;;;;;5070747;28;20394;-53
2021/04/05 02:42:58;;;;;;;3.05;1.38;;;20.80;37.00;;;;;;5071551;28;20040;-49
2021/04/05 02:45:26;;;;;;;3.85;1.20;;;20.80;37.10;;;;;;5071762;28;20086;-54
2021/04/05 02:47:54;;;;;;;2.88;1.30;;;20.80;37.10;;;;;;5089884;28;20108;-52
2021/04/05 02:50:23;;;;;;;3.03;1.20;;;20.80;37.10;;;;;;5072667;28;20462;-56
2021/04/05 02:52:49;;;;;;;3.40;1.48;;;20.80;37.10;;;;;;5071523;28;20263;-56
2021/04/05 02:55:15;;;;;;;2.85;1.30;;;20.80;37.10;;;;;;5072560;28;20086;-52
2021/04/05 02:57:43;;;;;;;4.63;1.30;;;20.80;37.20;;;;;;5075660;28;20097;-54
2021/04/05 03:00:15;;;;;;;3.97;1.40;;;20.80;37.10;;;;;;5092664;28;20457;-52
2021/04/05 03:02:43;;;;;;;4.78;1.58;;;20.80;37.10;;;;;;5091697;28;20032;-53
2021/04/05 03:05:10;;;;;;;4.88;1.13;;;20.80;37.20;;;;;;5092816;28;20024;-54
2021/04/05 03:07:37;;;;;;;3.45;1.10;;;20.80;37.10;;;;;;5091454;28;20035;-56
2021/04/05 03:10:08;;;;;;;3.33;1.30;;;20.80;37.10;;;;;;5092323;28;20028;-54
2021/04/05 03:12:39;;;;;;;5.72;2.05;;;20.80;37.10;;;;;;5090206;28;20028;-56
2021/04/05 03:15:08;;;;;;;4.47;1.48;;;20.80;37.20;;;;;;5092027;28;20560;-55
2021/04/05 03:17:35;;;;;;;3.45;1.40;;;20.80;37.20;;;;;;5091583;28;20024;-53
2021/04/05 03:20:03;;;;;;;2.83;1.00;;;20.80;37.10;;;;;;5092176;28;20126;-56
2021/04/05 03:22:29;;;;;;;3.72;1.27;;;20.80;37.20;;;;;;5091666;28;20039;-57
2021/04/05 03:24:55;;;;;;;4.60;1.20;;;20.80;37.20;;;;;;5091738;28;20035;-51
2021/04/05 03:27:24;;;;;;;4.28;1.45;;;20.80;37.30;;;;;;5090889;28;20032;-52
2021/04/05 03:29:50;;;;;;;2.88;1.42;;;20.80;37.20;;;;;;5091515;28;20020;-57
2021/04/05 03:32:19;;;;;;;2.28;1.20;;;20.80;37.30;;;;;;5091904;28;20028;-57
2021/04/05 03:34:53;;;;;;;3.65;1.40;;;20.80;37.20;;;;;;5091164;28;20453;-56
2021/04/05 03:37:21;;;;;;;3.50;2.15;;;20.80;37.20;;;;;;5092192;28;20030;-56
2021/04/05 03:39:50;;;;;;;1.67;1.05;;;20.80;37.30;;;;;;5090888;28;20469;-54
2021/04/05 03:42:35;;;;;;;4.55;1.50;;;20.80;37.30;;;;;;5090770;28;20028;-55
2021/04/05 03:45:10;;;;;;;2.63;1.27;;;20.80;37.30;;;;;;5092029;28;20388;-55
2021/04/05 03:47:51;;;;;;;2.72;1.20;;;20.80;37.30;;;;;;5070989;28;20028;-49
2021/04/05 03:50:21;;;;;;;2.90;1.20;;;20.80;37.40;;;;;;5071480;28;20504;-53
2021/04/05 03:53:24;;;;;;;2.25;1.30;;;20.80;37.30;;;;;;5070938;28;20055;-55
2021/04/05 03:55:56;;;;;;;3.90;1.83;;;20.80;37.40;;;;;;5070698;28;20040;-56
2021/04/05 03:58:26;;;;;;;2.20;1.20;;;20.80;37.40;;;;;;5070483;28;20138;-54
2021/04/05 04:00:55;;;;;;;2.65;1.23;;;20.80;37.50;;;;;;5070719;28;20029;-57
2021/04/05 04:03:33;;;;;;;2.22;1.30;;;20.80;37.40;;;;;;5071631;28;20445;-52
2021/04/05 04:06:02;;;;;;;2.90;1.40;;;20.80;37.50;;;;;;5071687;28;20070;-55
2021/04/05 04:08:48;;;;;;;3.22;1.38;;;20.80;37.50;;;;;;5071814;28;20108;-55
2021/04/05 04:11:21;;;;;;;2.55;1.20;;;20.80;37.50;;;;;;5071757;28;20040;-56
2021/04/05 04:13:47;;;;;;;2.15;1.17;;;20.80;37.60;;;;;;5070673;28;20052;-56
2021/04/05 04:16:14;;;;;;;2.97;1.50;;;20.80;37.60;;;;;;5071033;28;20052;-57
2021/04/05 04:18:40;;;;;;;3.63;1.35;;;20.80;37.60;;;;;;5070563;28;20040;-56
2021/04/05 04:21:11;;;;;;;3.88;1.52;;;20.80;37.60;;;;;;5071257;28;20046;-57
2021/04/05 04:23:37;;;;;;;2.47;1.20;;;20.80;37.60;;;;;;5070559;28;20073;-53
2021/04/05 04:26:04;;;;;;;3.67;1.20;;;20.80;37.60;;;;;;5071466;28;20029;-51
2021/04/05 04:28:30;;;;;;;3.08;1.35;;;20.80;37.60;;;;;;5071072;28;20500;-57
2021/04/05 04:30:57;;;;;;;1.98;1.10;;;20.70;37.60;;;;;;5070806;28;20036;-56
2021/04/05 04:33:26;;;;;;;2.45;1.10;;;20.80;37.60;;;;;;5069870;28;20423;-51
2021/04/05 04:35:52;;;;;;;2.72;1.27;;;20.80;37.60;;;;;;5070432;28;20083;-55
2021/04/05 04:38:21;;;;;;;2.47;1.20;;;20.80;37.60;;;;;;5070167;28;20029;-55
2021/04/05 04:40:46;;;;;;;4.50;1.45;;;20.80;37.60;;;;;;5070289;28;20024;-51
2021/04/05 04:43:12;;;;;;;4.72;1.70;;;20.70;37.70;;;;;;5071096;28;20484;-55
2021/04/05 04:45:38;;;;;;;1.92;1.17;;;20.70;37.60;;;;;;5070743;28;20032;-53
2021/04/05 04:48:04;;;;;;;4.13;1.85;;;20.70;37.60;;;;;;5071231;28;20028;-49
2021/04/05 04:50:30;;;;;;;3.40;1.65;;;20.70;37.60;;;;;;5070801;28;20044;-53
2021/04/05 04:52:56;;;;;;;3.95;1.70;;;20.80;37.70;;;;;;5070455;28;20022;-55
2021/04/05 04:55:23;;;;;;;3.92;1.50;;;20.70;37.70;;;;;;5071346;28;20024;-56
2021/04/05 04:57:54;;;;;;;4.03;1.60;;;20.70;37.60;;;;;;5070086;28;20086;-57
2021/04/05 05:00:21;;;;;;;1.98;1.05;;;20.70;37.70;;;;;;5070793;28;20186;-56
2021/04/05 05:02:48;;;;;;;2.72;1.10;;;20.80;37.70;;;;;;5071006;28;20063;-49
2021/04/05 05:05:16;;;;;;;2.28;1.10;;;20.80;37.70;;;;;;5074448;28;20028;-52
2021/04/05 05:07:43;;;;;;;2.55;1.48;;;20.80;37.70;;;;;;5073722;28;20024;-57
2021/04/05 05:10:12;;;;;;;3.05;1.00;;;20.80;37.70;;;;;;5074516;28;20040;-55
2021/04/05 05:12:39;;;;;;;3.42;1.13;;;20.70;37.70;;;;;;5073287;28;20021;-49
2021/04/05 05:15:09;;;;;;;2.63;1.15;;;20.80;37.70;;;;;;5074679;28;20093;-50
2021/04/05 05:17:41;;;;;;;2.53;1.20;;;20.80;37.70;;;;;;5072576;28;20025;-57
2021/04/05 05:20:08;;;;;;;2.65;1.10;;;20.80;37.70;;;;;;5074730;28;20130;-51
2021/04/05 05:22:48;;;;;;;3.15;1.20;;;20.70;37.70;;;;;;5073729;28;20033;-56
2021/04/05 05:25:17;;;;;;;3.85;1.52;;;20.70;37.70;;;;;;5072657;28;20036;-55
2021/04/05 05:27:47;;;;;;;2.60;0.82;;;20.80;37.70;;;;;;5071804;28;20032;-54
2021/04/05 05:30:20;;;;;;;2.40;1.20;;;20.80;37.70;;;;;;5074501;28;20481;-56
2021/04/05 05:32:49;;;;;;;4.75;1.27;;;20.80;37.80;;;;;;5073373;28;20021;-51
2021/04/05 05:35:17;;;;;;;3.45;1.23;;;20.70;37.70;;;;;;5073731;28;20358;-56
2021/04/05 05:37:44;;;;;;;3.42;1.20;;;20.80;37.90;;;;;;5073149;28;20033;-58
2021/04/05 05:40:19;;;;;;;3.03;1.27;;;20.80;37.80;;;;;;5073492;28;20031;-57
2021/04/05 05:43:13;;;;;;;4.50;1.13;;;20.80;38.40;;;;;;5072736;28;20107;-56
2021/04/05 05:46:23;;;;;;;3.58;1.40;;;20.90;37.70;;;;;;5074842;28;20036;-58
2021/04/05 05:48:57;;;;;;;2.17;1.23;;;21.00;37.60;;;;;;5060938;28;20033;-55
2021/04/05 05:51:51;;;;;;;2.10;1.42;;;21.00;37.60;;;;;;5072337;28;20454;-51
2021/04/05 05:54:54;;;;;;;2.58;1.25;;;21.10;37.50;;;;;;5072448;28;20070;-56
2021/04/05 05:57:43;;;;;;;1.95;1.10;;;21.10;37.50;;;;;;5073249;28;20036;-56
2021/04/05 06:00:24;;;;;;;3.00;0.95;;;21.10;37.40;;;;;;5065086;28;20048;-57
2021/04/05 06:03:17;;;;;;;1.70;1.08;;;21.10;37.30;;;;;;5072730;28;20101;-50
2021/04/05 06:06:02;;;;;;;5.43;1.27;;;21.20;37.40;;;;;;5072498;28;20031;-57
2021/04/05 06:08:46;;;;;;;4.25;1.35;;;21.20;37.30;;;;;;5073280;28;20028;-57
2021/04/05 06:11:50;;;;;;;2.50;1.20;;;21.20;37.20;;;;;;5072999;28;20028;-57
2021/04/05 06:14:47;;;;;;;2.45;1.20;;;21.30;37.20;;;;;;5040831;28;20098;-57
2021/04/05 06:17:34;;;;;;;5.28;1.05;;;21.30;37.10;;;;;;5071925;28;20041;-57
2021/04/05 06:20:06;;;;;;;3.03;1.10;;;21.30;37.10;;;;;;5072958;28;20033;-55
2021/04/05 06:22:41;;;;;;;6.53;1.33;;;21.40;37.10;;;;;;5072771;28;20032;-50
2021/04/05 06:25:29;;;;;;;6.47;1.33;;;21.40;37.00;;;;;;5071901;28;20043;-58
2021/04/05 06:28:14;;;;;;;3.10;1.20;;;21.40;37.10;;;;;;5071560;28;20035;-57
2021/04/05 06:30:47;;;;;;;5.88;1.15;;;21.40;37.00;;;;;;5071959;28;20478;-57
2021/04/05 06:33:15;;;;;;;8.55;1.23;;;21.40;37.00;;;;;;5071626;28;20477;-54
2021/04/05 06:36:06;;;;;;;6.25;1.35;;;21.40;37.00;;;;;;5072118;28;20028;-58
2021/04/05 06:38:46;;;;;;;1.88;0.95;;;21.40;37.10;;;;;;5072371;28;20016;-56
2021/04/05 06:41:30;;;;;;;5.05;1.08;;;21.40;37.10;;;;;;5072404;28;20029;-58
2021/04/05 06:44:33;;;;;;;2.60;1.83;;;21.40;37.10;;;;;;5071340;28;20159;-61
2021/04/05 06:47:26;;;;;;;5.28;1.17;;;21.30;37.10;;;;;;5084550;28;20097;-61
2021/04/05 06:50:08;;;;;;;4.10;1.50;;;21.30;37.10;;;;;;5091968;28;20027;-61
2021/04/05 06:52:44;;;;;;;5.40;1.23;;;21.30;37.10;;;;;;5092633;28;20031;-60
2021/04/05 06:55:27;;;;;;;6.10;1.50;;;21.30;37.10;;;;;;5088041;28;20056;-61
2021/04/05 06:58:16;;;;;;;4.00;1.10;;;21.30;37.10;;;;;;5071302;28;20043;-59
2021/04/05 07:01:10;;;;;;;4.07;1.40;;;21.40;37.10;;;;;;5071667;28;20028;-61
2021/04/05 07:04:04;;;;;;;4.28;1.50;;;21.40;37.10;;;;;;5070515;28;20090;-62
2021/04/05 07:06:46;;;;;;;6.07;1.60;;;21.30;37.30;;;;;;5071672;28;20389;-58
2021/04/05 07:09:30;;;;;;;4.38;1.05;;;21.40;37.20;;;;;;5071928;28;20485;-59
2021/04/05 07:12:47;;;;;;;6.10;1.52;;;21.50;37.20;;;;;;5071154;28;20073;-60
2021/04/05 07:15:19;;;;;;;11.07;1.60;;;21.50;37.40;;;;;;5048429;28;20124;-58
2021/04/05 07:18:09;;;;;;;9.52;1.50;;;21.60;37.60;;;;;;5071014;28;20033;-59
2021/04/05 07:20:56;;;;;;;5.05;1.30;;;21.70;37.70;;;;;;5070917;28;20481;-61
2021/04/05 07:23:29;;;;;;;7.28;1.65;;;21.80;38.30;;;;;;5064903;28;20162;-63
2021/04/05 07:26:10;;;;;;;8.88;1.17;;;21.80;38.10;;;;;;5080402;28;20031;-60
2021/04/05 07:28:51;;;;;;;3.92;1.30;;;21.90;38.40;;;;;;5092305;28;20027;-58
2021/04/05 07:31:51;;;;;;;8.90;1.30;;;21.80;38.20;;;;;;5092077;28;20032;-60
2021/04/05 07:34:33;;;;;;;7.03;2.00;;;21.80;38.20;;;;;;5092228;28;20077;-60
2021/04/05 07:37:21;;;;;;;8.38;1.83;;;21.90;38.40;;;;;;5091109;28;20763;-60
2021/04/05 07:40:21;;;;;;;4.85;1.33;;;21.90;38.50;;;;;;5091402;28;20032;-59
2021/04/05 07:43:00;;;;;;;8.00;1.55;;;21.90;38.30;;;;;;5090152;28;20051;-59
2021/04/05 07:45:36;;;;;;;5.47;1.30;;;21.90;38.30;;;;;;5078918;28;20336;-61
2021/04/05 07:48:31;;;;;;;4.25;1.65;;;21.90;38.40;;;;;;5080183;28;20028;-58
2021/04/05 07:51:27;;;;;;;4.10;1.50;;;22.00;38.50;;;;;;5069799;28;20055;-60
2021/04/05 07:54:01;;;;;;;7.25;1.70;;;22.00;38.30;;;;;;5070153;28;20065;-58
2021/04/05 07:56:31;;;;;;;5.47;1.60;;;22.00;38.20;;;;;;5071077;28;20024;-57
2021/04/05 07:59:14;;;;;;;4.97;1.67;;;22.00;38.00;;;;;;5070916;28;20165;-61
2021/04/05 08:02:02;;;;;;;3.35;1.52;;;22.00;38.00;;;;;;5066254;28;20067;-56
2021/04/05 08:04:34;;;;;;;12.57;2.05;;;21.90;37.90;;;;;;5071360;28;20078;-50
2021/04/05 08:07:03;;;;;;;;;;;21.80;38.00;;;;;;5069838;28;20094;-61
2021/04/05 08:09:43;;;;;;;5.15;1.70;;;22.00;37.90;;;;;;5071620;28;19909;-62
2021/04/05 08:12:15;;;;;;;5.53;1.58;;;22.00;38.00;;;;;;5071339;28;20036;-60
2021/04/05 08:14:59;;;;;;;5.22;1.30;;;21.90;37.70;;;;;;5070396;28;20081;-63
2021/04/05 08:17:36;;;;;;;7.65;1.90;;;21.80;37.90;;;;;;5070969;28;20111;-61
2021/04/05 08:20:42;;;;;;;8.90;1.75;;;21.80;37.60;;;;;;5069528;28;20048;-61
2021/04/05 08:23:26;;;;;;;5.65;1.75;;;21.80;37.50;;;;;;5014218;28;20090;-64
2021/04/05 08:26:22;;;;;;;16.65;2.40;;;21.80;37.30;;;;;;5070442;28;20040;-59
2021/04/05 08:29:09;;;;;;;11.57;2.13;;;21.80;37.40;;;;;;5070706;28;20024;-62
2021/04/05 08:32:20;;;;;;;11.07;1.98;;;21.80;37.30;;;;;;5069571;28;20078;-57
2021/04/05 08:35:20;;;;;;;10.05;2.15;;;21.70;37.60;;;;;;5033071;28;20094;-53
2021/04/05 08:38:00;;;;;;;6.70;1.40;;;21.70;37.50;;;;;;5070377;28;20028;-53
2021/04/05 08:40:37;;;;;;;4.80;1.60;;;21.70;37.30;;;;;;5074939;28;20039;-51
2021/04/05 08:43:45;;;;;;;6.07;1.88;;;21.60;37.40;;;;;;5074180;28;20113;-52
2021/04/05 08:46:13;;;;;;;7.68;1.65;;;21.70;37.30;;;;;;5036731;28;20489;-52
2021/04/05 08:48:42;;;;;;;7.82;1.55;;;21.70;37.20;;;;;;5073739;28;20037;-55
2021/04/05 08:51:20;;;;;;;11.15;1.50;;;21.60;37.10;;;;;;5074604;28;20106;-52
2021/04/05 08:53:57;;;;;;;11.38;1.48;;;21.70;37.60;;;;;;5073879;28;20033;-49
2021/04/05 08:56:36;;;;;;;13.35;2.63;;;21.80;37.20;;;;;;5075103;28;20025;-59
2021/04/05 08:59:12;;;;;;;12.45;2.22;;;21.80;37.50;;;;;;5073652;28;20184;-60
2021/04/05 09:01:48;;;;;;;8.93;1.63;;;21.70;37.60;;;;;;5074342;28;20112;-58
2021/04/05 09:04:24;;;;;;;10.05;1.98;;;21.80;37.60;;;;;;5074896;28;20028;-53
2021/04/05 09:07:29;;;;;;;7.57;1.67;;;21.70;37.30;;;;;;5073625;28;20112;-47
2021/04/05 09:10:02;;;;;;;12.40;1.65;;;21.70;37.10;;;;;;5087521;28;20024;-46
2021/04/05 09:12:29;;;;;;;20.52;2.60;;;21.60;37.40;;;;;;5083495;28;20025;-45
2021/04/05 09:15:07;;;;;;;13.00;2.17;;;21.70;37.50;;;;;;5072349;28;20410;-48
2021/04/05 09:17:47;;;;;;;12.73;2.28;;;21.60;37.30;;;;;;5074479;28;20033;-49
2021/04/05 09:20:51;;;;;;;14.57;2.20;;;21.60;37.60;;;;;;5074418;28;20033;-50
2021/04/05 09:23:35;;;;;;;11.20;2.25;;;21.50;38.10;;;;;;5072415;28;20457;-51
2021/04/05 09:26:01;;;;;;;13.25;2.30;;;21.50;38.50;;;;;;5072363;28;20032;-55
2021/04/05 09:28:57;;;;;;;9.65;2.20;;;21.70;38.50;;;;;;5074624;28;20035;-50
2021/04/05 09:31:59;;;;;;;10.93;1.85;;;21.70;39.00;;;;;;5073880;28;20056;-55
2021/04/05 09:34:46;;;;;;;11.43;2.20;;;21.80;39.60;;;;;;5075925;28;20020;-57
2021/04/05 09:37:18;;;;;;;15.98;3.10;;;21.80;39.20;;;;;;5085732;28;20076;-61
2021/04/05 09:40:28;;;;;;;6.15;1.80;;;21.80;39.60;;;;;;5093634;28;20121;-65
2021/04/05 09:43:15;;;;;;;17.17;2.42;;;21.80;39.90;;;;;;5093866;28;20516;-61
2021/04/05 09:46:14;;;;;;;16.73;2.95;;;21.80;39.80;;;;;;5093873;28;20028;-58
2021/04/05 09:49:08;;;;;;;20.45;2.92;;;21.90;38.80;;;;;;5041477;28;20554;-62
2021/04/05 09:52:19;;;;;;;12.13;2.97;;;21.80;35.60;;;;;;5093519;28;20118;-65
2021/04/05 09:54:59;;;;;;;25.45;3.10;;;21.80;35.50;;;;;;5085147;28;20044;-48
2021/04/05 09:57:33;;;;;;;17.15;2.60;;;21.80;33.80;;;;;;5093959;28;20020;-49
2021/04/05 10:00:01;;;;;;;14.20;2.40;;;21.70;33.10;;;;;;5093255;28;20467;-47
2021/04/05 10:02:35;;;;;;;8.65;2.40;;;21.70;32.60;;;;;;5075113;28;20388;-51
2021/04/05 10:05:03;;;;;;;6.60;2.03;;;21.70;32.30;;;;;;5072683;28;20020;-54
2021/04/05 10:07:29;;;;;;;12.52;2.30;;;21.80;30.20;;;;;;5079505;28;20016;-47
2021/04/05 10:09:57;;;;;;;11.27;2.65;;;21.80;30.90;;;;;;5089489;28;20028;-49
2021/04/05 10:12:25;;;;;;;12.75;2.15;;;21.80;30.00;;;;;;5072402;28;20111;-49
2021/04/05 10:14:52;;;;;;;11.02;2.10;;;21.80;30.00;;;;;;5074615;28;20057;-48
2021/04/05 10:17:24;;;;;;;8.10;2.00;;;21.80;29.70;;;;;;5087710;28;20017;-46
2021/04/05 10:19:55;;;;;;;13.35;3.15;;;21.80;29.00;;;;;;5087711;28;20025;-47
2021/04/05 10:22:21;;;;;;;14.07;2.28;;;21.90;28.90;;;;;;5093754;28;20024;-53
2021/04/05 10:24:57;;;;;;;12.30;2.08;;;21.90;28.80;;;;;;5092271;28;20032;-47
2021/04/05 10:27:26;;;;;;;14.70;2.92;;;21.90;28.40;;;;;;5093407;28;20032;-46
2021/04/05 10:29:56;;;;;;;10.75;2.33;;;21.90;29.10;;;;;;5092293;28;20038;-45
2021/04/05 10:32:24;;;;;;;10.63;2.75;;;21.90;29.00;;;;;;5092789;28;20020;-47
2021/04/05 10:35:11;;;;;;;10.65;2.45;;;21.90;29.20;;;;;;5092184;28;20031;-54
2021/04/05 10:37:43;;;;;;;10.75;2.97;;;22.00;29.00;;;;;;5080326;28;20031;-47
2021/04/05 10:40:18;;;;;;;10.50;2.83;;;22.00;28.90;;;;;;5082058;28;20461;-47
2021/04/05 10:42:48;;;;;;;10.25;3.45;;;22.00;29.80;;;;;;5072615;28;20039;-53
2021/04/05 10:45:23;;;;;;;13.25;4.60;;;22.10;28.60;;;;;;5072860;28;20350;-51
2021/04/05 10:47:59;;;;;;;10.50;3.20;;;22.20;28.40;;;;;;5072229;28;20029;-46
2021/04/05 10:50:33;;;;;;;13.15;4.78;;;22.20;28.40;;;;;;5073006;28;20104;-50
2021/04/05 10:53:04;;;;;;;12.68;5.40;;;22.20;28.30;;;;;;5078538;28;20074;-51
2021/04/05 10:55:32;;;;;;;9.88;4.93;;;22.20;28.00;;;;;;5091486;28;20065;-50
2021/04/05 10:58:02;;;;;;;9.25;5.00;;;22.00;27.90;;;;;;5091986;28;20484;-53
2021/04/05 11:00:37;;;;;;;9.13;4.32;;;22.00;27.80;;;;;;5091650;28;20035;-48
2021/04/05 11:03:08;;;;;;;11.25;4.97;;;21.90;27.60;;;;;;5090455;28;20035;-51
2021/04/05 11:05:37;;;;;;;19.42;6.88;;;21.80;27.80;;;;;;5092300;28;20028;-51
2021/04/05 11:08:05;;;;;;;12.93;4.97;;;21.80;27.90;;;;;;5091574;28;20020;-52
2021/04/05 11:10:33;;;;;;;11.90;4.93;;;21.70;28.20;;;;;;5092528;28;20055;-48
2021/04/05 11:13:11;;;;;;;15.95;4.88;;;21.70;27.90;;;;;;5092158;28;20038;-45
2021/04/05 11:15:40;;;;;;;12.40;4.50;;;21.70;28.30;;;;;;5092510;28;20039;-50
2021/04/05 11:18:08;;;;;;;13.75;3.88;;;21.80;29.40;;;;;;5091592;28;20100;-48
2021/04/05 11:20:38;;;;;;;18.73;4.32;;;21.80;29.40;;;;;;5092461;28;20024;-53
2021/04/05 11:23:20;;;;;;;8.95;3.28;;;21.80;28.00;;;;;;5091554;28;20135;-47
2021/04/05 11:26:00;;;;;;;10.45;2.80;;;21.80;27.10;;;;;;5091761;28;20097;-53
2021/04/05 11:28:27;;;;;;;6.07;2.55;;;21.90;26.80;;;;;;5092531;28;20032;-57
2021/04/05 11:31:17;;;;;;;7.80;2.33;;;21.80;27.60;;;;;;5091429;28;20024;-53
2021/04/05 11:33:49;;;;;;;9.70;2.30;;;21.80;28.10;;;;;;5092106;28;20492;-53
2021/04/05 11:36:16;;;;;;;8.63;2.90;;;21.70;28.00;;;;;;5092349;28;20069;-48
2021/04/05 11:38:50;;;;;;;11.70;2.63;;;21.70;28.10;;;;;;5092073;28;20028;-48
2021/04/05 11:41:27;;;;;;;6.93;2.40;;;21.70;29.30;;;;;;5091802;28;20107;-49
2021/04/05 11:44:00;;;;;;;9.88;2.92;;;21.70;28.20;;;;;;5091404;28;20040;-48
2021/04/05 11:46:41;;;;;;;7.15;2.92;;;21.50;29.60;;;;;;5083149;28;20103;-59
2021/04/05 11:49:06;;;;;;;10.98;2.88;;;21.60;29.80;;;;;;5071016;28;20085;-55
2021/04/05 11:51:41;;;;;;;8.13;2.55;;;21.70;32.20;;;;;;5071894;28;20036;-54
2021/04/05 11:54:11;;;;;;;11.82;2.58;;;21.70;31.30;;;;;;5071193;28;20040;-48
2021/04/05 11:56:43;;;;;;;9.57;2.72;;;21.70;29.70;;;;;;5071568;28;20082;-55
2021/04/05 11:59:24;;;;;;;11.90;3.47;;;21.60;29.10;;;;;;5071508;28;20035;-54
2021/04/05 12:02:02;;;;;;;10.48;2.95;;;21.40;30.60;;;;;;5074502;28;20041;-53
2021/04/05 12:05:08;;;;;;;11.45;3.60;;;21.10;29.10;;;;;;5071836;28;20039;-50
2021/04/05 12:07:35;;;;;;;11.32;3.17;;;20.70;29.00;;;;;;5071518;28;20036;-52
2021/04/05 12:10:17;;;;;;;10.40;3.75;;;20.50;29.50;;;;;;5073948;28;20028;-50
2021/04/05 12:12:56;;;;;;;10.88;3.20;;;20.80;29.40;;;;;;5075591;28;20033;-47
2021/04/05 12:15:23;;;;;;;9.80;3.10;;;20.80;29.70;;;;;;5075375;28;20052;-55
2021/04/05 12:17:52;;;;;;;12.38;3.20;;;21.00;31.10;;;;;;5075181;28;20029;-56
2021/04/05 12:20:27;;;;;;;8.68;2.60;;;21.20;31.60;;;;;;5075405;28;20369;-47
2021/04/05 12:22:55;;;;;;;9.07;3.42;;;21.40;32.40;;;;;;5074986;28;20020;-53
2021/04/05 12:25:40;;;;;;;10.73;2.63;;;21.50;32.60;;;;;;5075681;28;20024;-49
2021/04/05 12:28:11;;;;;;;10.95;2.85;;;21.50;33.00;;;;;;5074952;28;20439;-54
2021/04/05 12:30:39;;;;;;;7.47;2.45;;;21.50;33.10;;;;;;5075486;28;20043;-56
2021/04/05 12:33:09;;;;;;;9.77;3.25;;;21.50;33.10;;;;;;5074615;28;20029;-51
2021/04/05 12:35:36;;;;;;;9.15;3.15;;;21.50;33.50;;;;;;5075254;28;20083;-48
2021/04/05 12:38:06;;;;;;;9.93;2.67;;;21.50;33.90;;;;;;5074580;28;20086;-50
2021/04/05 12:40:36;;;;;;;8.20;2.47;;;21.50;33.90;;;;;;5075226;28;20032;-50
2021/04/05 12:43:12;;;;;;;8.23;2.65;;;21.50;34.20;;;;;;5074261;28;20054;-47
2021/04/05 12:45:40;;;;;;;23.38;2.75;;;21.60;34.30;;;;;;5077435;28;20380;-48
2021/04/05 12:48:10;;;;;;;17.02;3.35;;;21.50;34.60;;;;;;5094722;28;20106;-46
2021/04/05 12:50:37;;;;;;;10.13;2.15;;;21.60;35.00;;;;;;5095046;28;20140;-50
2021/04/05 12:53:08;;;;;;;13.55;2.47;;;21.60;35.50;;;;;;5094638;28;20107;-50
2021/04/05 12:55:40;;;;;;;7.82;2.13;;;21.60;36.00;;;;;;5094626;28;20059;-53
2021/04/05 12:58:07;;;;;;;14.05;2.50;;;21.60;35.60;;;;;;5094171;28;20064;-49
2021/04/05 13:00:39;;;;;;;8.05;2.40;;;21.50;35.60;;;;;;5094672;28;20077;-51
2021/04/05 13:03:18;;;;;;;11.90;2.63;;;21.50;35.50;;;;;;5094390;28;20039;-53
2021/04/05 13:05:53;;;;;;;16.25;3.92;;;21.50;35.50;;;;;;5093460;28;20078;-52
2021/04/05 13:08:40;;;;;;;14.85;2.08;;;21.50;35.50;;;;;;5095081;28;20027;-53
2021/04/05 13:11:20;;;;;;;10.35;2.53;;;21.50;35.70;;;;;;5096564;28;20103;-54
2021/04/05 13:13:59;;;;;;;12.35;2.58;;;21.40;36.10;;;;;;5092011;28;20024;-52
2021/04/05 13:16:32;;;;;;;8.23;1.83;;;21.50;36.00;;;;;;5083229;28;20044;-53
2021/04/05 13:19:10;;;;;;;11.23;2.17;;;21.50;36.20;;;;;;5094995;28;20511;-50
2021/04/05 13:21:38;;;;;;;13.15;2.95;;;21.50;36.30;;;;;;5093618;28;20028;-53
2021/04/05 13:24:13;;;;;;;6.93;2.25;;;21.50;36.70;;;;;;5093323;28;20039;-47
2021/04/05 13:26:45;;;;;;;6.47;2.22;;;21.60;37.00;;;;;;5094539;28;20054;-49